createdAt,value
2019-03-26T00:00:33.961Z,98386.56
2019-03-26T00:01:36.483Z,98389.38
2019-03-26T00:02:38.669Z,98392.67
2019-03-26T00:03:40.473Z,98395.98
2019-03-26T00:04:42.491Z,98391.69
2019-03-26T00:05:44.758Z,98393.34
2019-03-26T00:06:46.451Z,98395.31
2019-03-26T00:07:48.794Z,98396.81
2019-03-26T00:08:50.891Z,98397.64
2019-03-26T00:09:52.701Z,98403.44
2019-03-26T00:10:55.008Z,98401.27
2019-03-26T00:11:57.269Z,98390.67
2019-03-26T00:12:59.417Z,98391.34
2019-03-26T00:14:02.220Z,98393.33
2019-03-26T00:15:05.513Z,98391.02
2019-03-26T00:16:07.837Z,98389.02
2019-03-26T00:17:09.899Z,98392.67
2019-03-26T00:18:11.875Z,98396.98
2019-03-26T00:19:13.747Z,98399.11
2019-03-26T00:20:15.855Z,98399.27
2019-03-26T00:21:18.041Z,98395.66
2019-03-26T00:22:20.224Z,98399.78
2019-03-26T00:23:22.227Z,98397.30
2019-03-26T00:24:24.152Z,98392.65
2019-03-26T00:25:26.627Z,98392.17
2019-03-26T00:26:29.542Z,98399.28
2019-03-26T00:27:31.600Z,98398.63
2019-03-26T00:28:33.819Z,98400.59
2019-03-26T00:29:35.836Z,98397.80
2019-03-26T00:30:38.086Z,98398.31
2019-03-26T00:31:40.168Z,98398.13
2019-03-26T00:32:42.422Z,98399.94
2019-03-26T00:33:44.462Z,98401.11
2019-03-26T00:34:46.455Z,98405.92
2019-03-26T00:35:48.476Z,98400.95
2019-03-26T00:36:50.212Z,98402.24
2019-03-26T00:37:52.225Z,98405.89
2019-03-26T00:38:54.378Z,98413.33
2019-03-26T00:39:56.027Z,98411.00
2019-03-26T00:40:58.514Z,98416.49
2019-03-26T00:42:00.828Z,98415.48
2019-03-26T00:43:02.975Z,98416.00
2019-03-26T00:44:05.143Z,98416.98
2019-03-26T00:45:07.800Z,98419.81
2019-03-26T00:46:09.852Z,98414.67
2019-03-26T00:47:11.885Z,98417.48
2019-03-26T00:48:13.870Z,98415.52
2019-03-26T00:49:15.941Z,98419.81
2019-03-26T00:50:18.165Z,98422.13
2019-03-26T00:51:20.279Z,98415.86
2019-03-26T00:52:22.227Z,98416.48
2019-03-26T00:53:24.431Z,98420.97
2019-03-26T00:54:26.515Z,98418.84
2019-03-26T00:55:28.619Z,98425.45
2019-03-26T00:56:30.979Z,98422.30
2019-03-26T00:57:33.325Z,98426.76
2019-03-26T00:58:35.273Z,98424.30
2019-03-26T00:59:37.429Z,98428.75
2019-03-26T01:00:41.291Z,98423.29
2019-03-26T01:01:43.362Z,98432.08
2019-03-26T01:02:45.457Z,98424.78
2019-03-26T01:03:47.560Z,98423.59
2019-03-26T01:04:49.431Z,98418.98
2019-03-26T01:05:51.518Z,98417.34
2019-03-26T01:06:53.502Z,98417.34
2019-03-26T01:07:55.448Z,98417.66
2019-03-26T01:08:57.661Z,98416.66
2019-03-26T01:09:59.736Z,98416.00
2019-03-26T01:11:01.774Z,98415.01
2019-03-26T01:12:04.192Z,98421.12
2019-03-26T01:13:07.138Z,98424.44
2019-03-26T01:14:09.092Z,98424.91
2019-03-26T01:15:10.945Z,98433.00
2019-03-26T01:16:12.879Z,98435.34
2019-03-26T01:17:15.012Z,98429.06
2019-03-26T01:18:17.318Z,98436.14
2019-03-26T01:19:19.545Z,98429.67
2019-03-26T01:20:21.648Z,98442.23
2019-03-26T01:21:23.497Z,98439.27
2019-03-26T01:22:25.525Z,98438.77
2019-03-26T01:23:27.527Z,98437.14
2019-03-26T01:24:29.253Z,98442.08
2019-03-26T01:25:31.335Z,98438.59
2019-03-26T01:26:33.542Z,98437.30
2019-03-26T01:27:35.603Z,98442.58
2019-03-26T01:28:37.853Z,98439.59
2019-03-26T01:29:40.034Z,98442.89
2019-03-26T01:30:41.978Z,98437.14
2019-03-26T01:31:43.692Z,98446.55
2019-03-26T01:32:45.707Z,98448.86
2019-03-26T01:33:47.778Z,98445.23
2019-03-26T01:34:49.550Z,98438.42
2019-03-26T01:35:51.775Z,98440.27
2019-03-26T01:36:53.655Z,98445.02
2019-03-26T01:37:55.717Z,98448.28
2019-03-26T01:38:58.034Z,98449.59
2019-03-26T01:39:59.903Z,98449.30
2019-03-26T01:41:02.501Z,98452.43
2019-03-26T01:42:04.476Z,98456.89
2019-03-26T01:43:06.261Z,98454.78
2019-03-26T01:44:08.518Z,98453.59
2019-03-26T01:45:11.037Z,98451.11
2019-03-26T01:46:14.123Z,98447.72
2019-03-26T01:47:17.457Z,98457.72
2019-03-26T01:48:19.622Z,98455.40
2019-03-26T01:49:21.353Z,98457.33
2019-03-26T01:50:23.669Z,98465.77
2019-03-26T01:51:25.497Z,98462.02
2019-03-26T01:52:27.679Z,98462.58
2019-03-26T01:53:29.648Z,98462.70
2019-03-26T01:54:31.736Z,98464.84
2019-03-26T01:55:33.805Z,98466.69
2019-03-26T01:56:35.753Z,98457.80
2019-03-26T01:57:37.548Z,98461.93
2019-03-26T01:58:39.529Z,98459.16
2019-03-26T01:59:41.719Z,98461.37
2019-03-26T02:00:43.492Z,98460.97
2019-03-26T02:01:45.578Z,98477.54
2019-03-26T02:02:47.785Z,98472.25
2019-03-26T02:03:50.208Z,98477.03
2019-03-26T02:04:59.945Z,98470.60
2019-03-26T02:05:56.255Z,98467.94
2019-03-26T02:06:58.235Z,98474.09
2019-03-26T02:08:00.302Z,98481.69
2019-03-26T02:09:04.361Z,98477.54
2019-03-26T02:10:06.611Z,98475.89
2019-03-26T02:11:08.819Z,98476.76
2019-03-26T02:12:11.358Z,98483.01
2019-03-26T02:13:13.450Z,98488.77
2019-03-26T02:14:15.641Z,98482.31
2019-03-26T02:15:26.864Z,98486.97
2019-03-26T02:16:29.010Z,98489.31
2019-03-26T02:17:31.054Z,98489.67
2019-03-26T02:18:33.100Z,98487.20
2019-03-26T02:19:34.763Z,98488.02
2019-03-26T02:20:36.848Z,98487.96
2019-03-26T02:21:38.889Z,98491.45
2019-03-26T02:22:41.020Z,98492.26
2019-03-26T02:23:43.294Z,98497.36
2019-03-26T02:24:45.312Z,98496.22
2019-03-26T02:25:47.508Z,98493.75
2019-03-26T02:26:49.635Z,98496.94
2019-03-26T02:27:51.515Z,98499.91
2019-03-26T02:28:53.524Z,98506.25
2019-03-26T02:29:55.718Z,98503.33
2019-03-26T02:30:57.931Z,98504.59
2019-03-26T02:32:00.063Z,98502.25
2019-03-26T02:33:02.214Z,98499.94
2019-03-26T02:34:04.220Z,98503.88
2019-03-26T02:35:17.890Z,98503.19
2019-03-26T02:36:12.011Z,98511.12
2019-03-26T02:37:14.233Z,98505.71
2019-03-26T02:38:16.231Z,98506.70
2019-03-26T02:39:18.343Z,98513.46
2019-03-26T02:40:20.582Z,98517.45
2019-03-26T02:41:22.635Z,98518.96
2019-03-26T02:42:24.824Z,98516.16
2019-03-26T02:43:27.048Z,98515.68
2019-03-26T02:44:30.035Z,98515.30
2019-03-26T02:45:32.643Z,98520.77
2019-03-26T02:46:34.985Z,98521.45
2019-03-26T02:47:36.964Z,98526.59
2019-03-26T02:48:38.792Z,98531.39
2019-03-26T02:49:40.779Z,98529.23
2019-03-26T02:50:42.916Z,98531.39
2019-03-26T02:51:44.911Z,98532.72
2019-03-26T02:52:46.853Z,98535.54
2019-03-26T02:53:48.869Z,98531.39
2019-03-26T02:54:51.170Z,98537.10
2019-03-26T02:55:53.248Z,98536.59
2019-03-26T02:56:55.500Z,98534.09
2019-03-26T02:57:57.497Z,98535.42
2019-03-26T02:58:59.768Z,98542.52
2019-03-26T03:00:03.619Z,98538.55
2019-03-26T03:01:07.125Z,98541.64
2019-03-26T03:02:09.112Z,98535.33
2019-03-26T03:03:11.313Z,98536.94
2019-03-26T03:04:12.961Z,98536.17
2019-03-26T03:05:15.748Z,98538.99
2019-03-26T03:06:17.792Z,98541.27
2019-03-26T03:07:21.893Z,98539.98
2019-03-26T03:08:23.993Z,98539.50
2019-03-26T03:09:26.246Z,98540.83
2019-03-26T03:10:28.427Z,98541.01
2019-03-26T03:11:30.873Z,98535.24
2019-03-26T03:12:32.686Z,98533.95
2019-03-26T03:13:34.877Z,98538.42
2019-03-26T03:14:36.972Z,98535.63
2019-03-26T03:15:38.643Z,98542.58
2019-03-26T03:16:40.709Z,98543.92
2019-03-26T03:17:43.109Z,98544.77
2019-03-26T03:18:45.751Z,98536.98
2019-03-26T03:19:47.848Z,98540.11
2019-03-26T03:20:50.073Z,98542.91
2019-03-26T03:21:52.028Z,98544.91
2019-03-26T03:22:54.222Z,98544.31
2019-03-26T03:23:56.181Z,98542.99
2019-03-26T03:24:58.459Z,98551.92
2019-03-26T03:26:00.517Z,98549.45
2019-03-26T03:27:02.809Z,98546.72
2019-03-26T03:28:04.553Z,98548.94
2019-03-26T03:29:06.749Z,98547.80
2019-03-26T03:30:09.325Z,98548.13
2019-03-26T03:31:11.303Z,98549.27
2019-03-26T03:32:13.275Z,98552.94
2019-03-26T03:33:15.373Z,98546.00
2019-03-26T03:34:19.215Z,98550.63
2019-03-26T03:35:21.439Z,98554.59
2019-03-26T03:36:23.077Z,98552.27
2019-03-26T03:37:24.875Z,98555.28
2019-03-26T03:38:27.392Z,98561.20
2019-03-26T03:39:29.351Z,98558.55
2019-03-26T03:40:31.416Z,98553.51
2019-03-26T03:41:35.625Z,98554.89
2019-03-26T03:42:38.618Z,98560.33
2019-03-26T03:43:40.618Z,98556.16
2019-03-26T03:44:42.662Z,98562.50
2019-03-26T03:45:44.991Z,98562.40
2019-03-26T03:46:48.108Z,98567.69
2019-03-26T03:47:50.530Z,98569.34
2019-03-26T03:48:52.537Z,98561.23
2019-03-26T03:49:57.662Z,98568.14
2019-03-26T03:51:03.226Z,98569.31
2019-03-26T03:52:07.560Z,98569.79
2019-03-26T03:53:12.939Z,98572.65
2019-03-26T03:54:16.281Z,98576.58
2019-03-26T03:55:18.160Z,98565.34
2019-03-26T03:56:24.156Z,98574.56
2019-03-26T03:57:30.279Z,98574.23
2019-03-26T03:58:34.605Z,98578.71
2019-03-26T03:59:38.553Z,98582.16
2019-03-26T04:00:40.780Z,98584.84
2019-03-26T04:01:42.835Z,98582.73
2019-03-26T04:02:44.876Z,98583.06
2019-03-26T04:03:47.191Z,98575.28
2019-03-26T04:04:49.144Z,98580.90
2019-03-26T04:06:07.749Z,98581.92
2019-03-26T04:06:55.191Z,98582.59
2019-03-26T04:07:57.370Z,98586.22
2019-03-26T04:08:59.465Z,98576.31
2019-03-26T04:10:01.389Z,98586.42
2019-03-26T04:11:03.572Z,98584.24
2019-03-26T04:12:05.687Z,98591.60
2019-03-26T04:13:07.969Z,98588.96
2019-03-26T04:14:10.149Z,98592.97
2019-03-26T04:15:12.875Z,98591.84
2019-03-26T04:16:14.777Z,98592.31
2019-03-26T04:17:16.777Z,98589.02
2019-03-26T04:18:18.887Z,98592.98
2019-03-26T04:19:21.047Z,98598.30
2019-03-26T04:20:23.188Z,98593.82
2019-03-26T04:21:25.205Z,98596.51
2019-03-26T04:22:27.216Z,98588.44
2019-03-26T04:23:29.364Z,98591.08
2019-03-26T04:24:31.517Z,98594.24
2019-03-26T04:25:33.360Z,98594.11
2019-03-26T04:26:37.584Z,98595.57
2019-03-26T04:27:39.425Z,98593.12
2019-03-26T04:28:41.299Z,98596.79
2019-03-26T04:29:43.469Z,98598.63
2019-03-26T04:30:46.048Z,98602.12
2019-03-26T04:31:48.162Z,98609.34
2019-03-26T04:32:50.206Z,98602.59
2019-03-26T04:33:52.337Z,98605.09
2019-03-26T04:34:54.578Z,98609.20
2019-03-26T04:35:56.533Z,98601.92
2019-03-26T04:36:58.283Z,98602.73
2019-03-26T04:38:00.786Z,98606.22
2019-03-26T04:39:05.645Z,98604.06
2019-03-26T04:40:08.043Z,98609.67
2019-03-26T04:41:10.102Z,98609.38
2019-03-26T04:42:11.915Z,98612.36
2019-03-26T04:43:13.872Z,98615.00
2019-03-26T04:44:15.958Z,98611.70
2019-03-26T04:45:18.290Z,98610.93
2019-03-26T04:46:20.354Z,98613.39
2019-03-26T04:47:22.404Z,98617.03
2019-03-26T04:48:24.515Z,98609.42
2019-03-26T04:49:26.596Z,98611.12
2019-03-26T04:50:29.934Z,98615.85
2019-03-26T04:51:32.549Z,98614.34
2019-03-26T04:52:34.195Z,98611.84
2019-03-26T04:53:36.682Z,98614.95
2019-03-26T04:54:38.883Z,98615.33
2019-03-26T04:55:41.834Z,98610.19
2019-03-26T04:56:43.824Z,98616.98
2019-03-26T04:57:45.590Z,98613.02
2019-03-26T04:58:47.710Z,98624.48
2019-03-26T04:59:49.822Z,98621.33
2019-03-26T05:00:52.031Z,98620.71
2019-03-26T05:01:55.374Z,98624.34
2019-03-26T05:02:57.786Z,98619.67
2019-03-26T05:03:59.676Z,98625.28
2019-03-26T05:05:02.212Z,98626.31
2019-03-26T05:06:04.306Z,98623.81
2019-03-26T05:07:06.210Z,98632.27
2019-03-26T05:08:08.372Z,98629.84
2019-03-26T05:09:10.551Z,98625.14
2019-03-26T05:10:12.517Z,98634.51
2019-03-26T05:11:14.880Z,98631.82
2019-03-26T05:12:16.789Z,98629.56
2019-03-26T05:13:19.351Z,98629.52
2019-03-26T05:14:21.326Z,98620.94
2019-03-26T05:15:23.491Z,98623.84
2019-03-26T05:16:25.565Z,98631.48
2019-03-26T05:17:27.553Z,98620.48
2019-03-26T05:18:29.573Z,98628.80
2019-03-26T05:19:31.667Z,98623.78
2019-03-26T05:20:33.799Z,98624.45
2019-03-26T05:21:35.913Z,98630.26
2019-03-26T05:22:38.230Z,98624.50
2019-03-26T05:23:40.203Z,98624.19
2019-03-26T05:24:41.950Z,98628.75
2019-03-26T05:25:44.039Z,98618.52
2019-03-26T05:26:46.007Z,98623.47
2019-03-26T05:27:47.951Z,98634.21
2019-03-26T05:28:49.988Z,98625.95
2019-03-26T05:29:52.133Z,98628.73
2019-03-26T05:30:55.048Z,98626.90
2019-03-26T05:32:00.100Z,98629.39
2019-03-26T05:33:02.326Z,98629.54
2019-03-26T05:34:04.366Z,98629.31
2019-03-26T05:35:07.014Z,98633.36
2019-03-26T05:36:09.678Z,98634.88
2019-03-26T05:37:11.668Z,98638.56
2019-03-26T05:38:13.747Z,98635.66
2019-03-26T05:39:16.873Z,98634.51
2019-03-26T05:40:19.065Z,98634.84
2019-03-26T05:41:21.189Z,98639.83
2019-03-26T05:42:23.217Z,98638.76
2019-03-26T05:43:25.396Z,98646.53
2019-03-26T05:44:27.728Z,98638.61
2019-03-26T05:45:29.762Z,98646.22
2019-03-26T05:46:31.820Z,98643.70
2019-03-26T05:47:34.164Z,98641.40
2019-03-26T05:48:36.444Z,98643.70
2019-03-26T05:49:38.450Z,98641.64
2019-03-26T05:50:40.549Z,98639.14
2019-03-26T05:51:42.611Z,98628.84
2019-03-26T05:52:44.726Z,98640.20
2019-03-26T05:53:46.723Z,98641.45
2019-03-26T05:54:48.634Z,98634.14
2019-03-26T05:55:50.595Z,98641.78
2019-03-26T05:56:52.793Z,98635.83
2019-03-26T05:57:54.619Z,98637.25
2019-03-26T05:58:56.851Z,98633.02
2019-03-26T05:59:58.928Z,98633.92
2019-03-26T06:01:01.004Z,98641.17
2019-03-26T06:02:14.248Z,98631.66
2019-03-26T06:03:09.228Z,98641.51
2019-03-26T06:04:11.297Z,98636.56
2019-03-26T06:05:13.559Z,98641.17
2019-03-26T06:06:15.556Z,98638.07
2019-03-26T06:07:17.579Z,98642.92
2019-03-26T06:08:19.695Z,98640.89
2019-03-26T06:09:21.845Z,98641.78
2019-03-26T06:10:24.040Z,98649.09
2019-03-26T06:11:26.239Z,98644.20
2019-03-26T06:12:27.925Z,98641.94
2019-03-26T06:13:29.893Z,98652.20
2019-03-26T06:14:31.898Z,98651.69
2019-03-26T06:15:34.101Z,98651.36
2019-03-26T06:16:38.587Z,98649.48
2019-03-26T06:17:40.372Z,98649.48
2019-03-26T06:18:42.139Z,98650.93
2019-03-26T06:19:44.520Z,98650.38
2019-03-26T06:20:46.669Z,98653.33
2019-03-26T06:21:48.843Z,98657.15
2019-03-26T06:22:50.958Z,98658.73
2019-03-26T06:23:53.818Z,98652.78
2019-03-26T06:24:56.006Z,98648.02
2019-03-26T06:25:58.211Z,98654.38
2019-03-26T06:27:00.179Z,98653.52
2019-03-26T06:28:01.971Z,98655.70
2019-03-26T06:29:04.207Z,98649.75
2019-03-26T06:30:08.770Z,98651.87
2019-03-26T06:31:10.460Z,98664.94
2019-03-26T06:32:12.750Z,98663.39
2019-03-26T06:33:14.800Z,98661.47
2019-03-26T06:34:17.042Z,98659.00
2019-03-26T06:35:19.080Z,98650.09
2019-03-26T06:36:21.092Z,98653.11
2019-03-26T06:37:23.190Z,98650.13
2019-03-26T06:38:25.538Z,98651.50
2019-03-26T06:39:29.231Z,98652.63
2019-03-26T06:40:31.487Z,98653.86
2019-03-26T06:41:33.514Z,98649.98
2019-03-26T06:42:35.929Z,98657.10
2019-03-26T06:43:37.673Z,98654.79
2019-03-26T06:44:39.714Z,98658.87
2019-03-26T06:45:41.668Z,98665.77
2019-03-26T06:46:43.719Z,98660.41
2019-03-26T06:47:45.789Z,98662.58
2019-03-26T06:48:47.628Z,98672.75
2019-03-26T06:49:49.619Z,98672.02
2019-03-26T06:50:51.918Z,98674.66
2019-03-26T06:51:54.069Z,98674.06
2019-03-26T06:52:56.095Z,98670.02
2019-03-26T06:53:58.157Z,98672.66
2019-03-26T06:54:59.821Z,98672.74
2019-03-26T06:56:01.918Z,98671.00
2019-03-26T06:57:03.905Z,98673.13
2019-03-26T06:58:05.888Z,98670.41
2019-03-26T06:59:08.192Z,98669.28
2019-03-26T07:00:12.751Z,98669.94
2019-03-26T07:01:14.602Z,98679.91
2019-03-26T07:02:18.111Z,98667.22
2019-03-26T07:03:21.148Z,98673.42
2019-03-26T07:04:26.442Z,98671.32
2019-03-26T07:05:28.616Z,98663.55
2019-03-26T07:06:30.763Z,98675.14
2019-03-26T07:07:33.142Z,98669.13
2019-03-26T07:08:35.132Z,98674.73
2019-03-26T07:09:37.027Z,98672.27
2019-03-26T07:10:39.098Z,98674.34
2019-03-26T07:11:41.076Z,98671.94
2019-03-26T07:12:44.445Z,98673.97
2019-03-26T07:13:46.479Z,98677.59
2019-03-26T07:14:48.662Z,98678.36
2019-03-26T07:15:50.695Z,98673.58
2019-03-26T07:16:52.677Z,98680.11
2019-03-26T07:17:54.879Z,98674.97
2019-03-26T07:18:56.706Z,98671.20
2019-03-26T07:19:58.870Z,98676.42
2019-03-26T07:21:01.226Z,98677.15
2019-03-26T07:22:03.590Z,98673.19
2019-03-26T07:23:08.364Z,98677.03
2019-03-26T07:24:09.457Z,98671.82
2019-03-26T07:25:12.000Z,98668.05
2019-03-26T07:26:14.416Z,98682.22
2019-03-26T07:27:16.723Z,98673.45
2019-03-26T07:28:18.512Z,98674.22
2019-03-26T07:29:20.786Z,98677.19
2019-03-26T07:30:42.700Z,98678.41
2019-03-26T07:31:44.816Z,98674.95
2019-03-26T07:32:48.020Z,98672.20
2019-03-26T07:33:50.082Z,98689.22
2019-03-26T07:34:52.179Z,98684.72
2019-03-26T07:35:55.878Z,98680.84
2019-03-26T07:36:58.066Z,98679.67
2019-03-26T07:38:00.210Z,98684.48
2019-03-26T07:39:03.957Z,98680.05
2019-03-26T07:40:07.156Z,98678.14
2019-03-26T07:41:09.111Z,98679.99
2019-03-26T07:42:10.867Z,98682.23
2019-03-26T07:43:13.104Z,98679.15
2019-03-26T07:44:15.214Z,98681.00
2019-03-26T07:45:17.321Z,98676.81
2019-03-26T07:46:19.099Z,98682.09
2019-03-26T07:47:21.356Z,98685.51
2019-03-26T07:48:23.441Z,98676.70
2019-03-26T07:49:25.166Z,98687.56
2019-03-26T07:50:27.254Z,98685.34
2019-03-26T07:51:29.545Z,98687.85
2019-03-26T07:52:31.595Z,98683.02
2019-03-26T07:53:33.717Z,98685.47
2019-03-26T07:54:35.376Z,98680.46
2019-03-26T07:55:38.644Z,98678.50
2019-03-26T07:56:40.897Z,98676.25
2019-03-26T07:57:42.915Z,98680.19
2019-03-26T07:58:45.029Z,98674.65
2019-03-26T07:59:47.681Z,98672.31
2019-03-26T08:00:49.773Z,98672.95
2019-03-26T08:01:51.966Z,98679.03
2019-03-26T08:02:54.383Z,98675.80
2019-03-26T08:03:56.060Z,98671.56
2019-03-26T08:04:58.368Z,98667.06
2019-03-26T08:06:01.026Z,98676.56
2019-03-26T08:07:02.966Z,98675.45
2019-03-26T08:08:05.417Z,98673.08
2019-03-26T08:09:07.065Z,98674.59
2019-03-26T08:10:09.442Z,98681.84
2019-03-26T08:11:11.601Z,98681.75
2019-03-26T08:12:15.425Z,98682.92
2019-03-26T08:13:18.763Z,98677.00
2019-03-26T08:14:21.200Z,98683.05
2019-03-26T08:15:23.291Z,98678.31
2019-03-26T08:16:25.121Z,98673.42
2019-03-26T08:17:27.377Z,98668.38
2019-03-26T08:18:29.661Z,98668.09
2019-03-26T08:19:31.893Z,98669.67
2019-03-26T08:20:33.877Z,98665.66
2019-03-26T08:21:35.972Z,98673.92
2019-03-26T08:22:37.944Z,98673.50
2019-03-26T08:23:40.216Z,98672.84
2019-03-26T08:24:42.027Z,98669.11
2019-03-26T08:25:44.186Z,98665.67
2019-03-26T08:26:46.678Z,98671.34
2019-03-26T08:27:48.807Z,98665.77
2019-03-26T08:28:50.930Z,98671.10
2019-03-26T08:29:52.938Z,98668.60
2019-03-26T08:30:54.734Z,98673.70
2019-03-26T08:31:56.849Z,98670.72
2019-03-26T08:32:58.910Z,98667.09
2019-03-26T08:34:00.605Z,98672.50
2019-03-26T08:35:04.402Z,98667.80
2019-03-26T08:36:06.351Z,98657.17
2019-03-26T08:37:08.661Z,98664.45
2019-03-26T08:38:12.976Z,98664.55
2019-03-26T08:39:14.599Z,98667.45
2019-03-26T08:40:17.007Z,98664.20
2019-03-26T08:41:19.195Z,98665.53
2019-03-26T08:42:21.170Z,98660.95
2019-03-26T08:43:23.364Z,98666.30
2019-03-26T08:44:25.557Z,98669.35
2019-03-26T08:45:27.225Z,98662.05
2019-03-26T08:46:29.410Z,98656.47
2019-03-26T08:47:31.505Z,98661.66
2019-03-26T08:48:34.649Z,98658.25
2019-03-26T08:49:36.839Z,98658.73
2019-03-26T08:50:39.115Z,98669.50
2019-03-26T08:51:41.246Z,98661.24
2019-03-26T08:52:43.354Z,98656.91
2019-03-26T08:53:45.387Z,98663.02
2019-03-26T08:54:47.379Z,98655.28
2019-03-26T08:55:49.513Z,98653.73
2019-03-26T08:56:51.669Z,98649.02
2019-03-26T08:57:53.351Z,98649.97
2019-03-26T08:58:56.147Z,98654.90
2019-03-26T08:59:58.169Z,98656.70
2019-03-26T09:00:59.945Z,98652.81
2019-03-26T09:02:02.058Z,98653.47
2019-03-26T09:03:04.168Z,98652.84
2019-03-26T09:04:06.223Z,98648.09
2019-03-26T09:05:08.731Z,98649.05
2019-03-26T09:06:10.850Z,98649.17
2019-03-26T09:07:13.131Z,98645.75
2019-03-26T09:09:18.900Z,98647.42
2019-03-26T09:10:20.891Z,98642.76
2019-03-26T09:11:23.056Z,98632.92
2019-03-26T09:12:25.160Z,98642.25
2019-03-26T09:13:27.222Z,98641.66
2019-03-26T09:14:29.441Z,98646.82
2019-03-26T09:15:31.680Z,98649.02
2019-03-26T09:16:33.870Z,98631.30
2019-03-26T09:17:38.519Z,98645.17
2019-03-26T09:18:40.180Z,98651.34
2019-03-26T09:19:42.118Z,98652.45
2019-03-26T09:20:44.420Z,98641.98
2019-03-26T09:21:46.096Z,98640.76
2019-03-26T09:22:48.080Z,98644.47
2019-03-26T09:23:50.198Z,98645.98
2019-03-26T09:24:52.000Z,98643.84
2019-03-26T09:25:54.226Z,98639.84
2019-03-26T09:26:56.182Z,98644.84
2019-03-26T09:27:58.262Z,98644.84
2019-03-26T09:29:00.559Z,98645.53
2019-03-26T09:30:07.106Z,98638.44
2019-03-26T09:31:09.388Z,98634.92
2019-03-26T09:32:11.985Z,98628.88
2019-03-26T09:33:15.423Z,98629.66
2019-03-26T09:34:17.470Z,98634.62
2019-03-26T09:35:19.946Z,98627.69
2019-03-26T09:36:22.029Z,98636.20
2019-03-26T09:37:24.014Z,98632.91
2019-03-26T09:38:38.392Z,98629.96
2019-03-26T09:39:30.438Z,98629.81
2019-03-26T09:40:32.469Z,98624.05
2019-03-26T09:41:34.722Z,98616.19
2019-03-26T09:42:37.312Z,98620.77
2019-03-26T09:43:40.581Z,98619.81
2019-03-26T09:44:42.859Z,98625.70
2019-03-26T09:45:45.007Z,98614.22
2019-03-26T09:46:47.178Z,98613.22
2019-03-26T09:47:49.254Z,98616.34
2019-03-26T09:48:51.521Z,98616.23
2019-03-26T09:49:53.735Z,98612.45
2019-03-26T09:50:56.058Z,98609.56
2019-03-26T09:51:57.901Z,98617.67
2019-03-26T09:53:00.177Z,98609.75
2019-03-26T09:54:02.310Z,98605.48
2019-03-26T09:55:07.644Z,98603.98
2019-03-26T09:56:09.623Z,98609.32
2019-03-26T09:57:11.714Z,98605.23
2019-03-26T09:58:13.491Z,98603.26
2019-03-26T09:59:15.645Z,98600.27
2019-03-26T10:00:17.573Z,98599.95
2019-03-26T10:01:19.791Z,98603.92
2019-03-26T10:02:21.844Z,98600.43
2019-03-26T10:03:23.743Z,98595.78
2019-03-26T10:04:25.458Z,98587.69
2019-03-26T10:05:27.637Z,98587.77
2019-03-26T10:06:29.901Z,98590.74
2019-03-26T10:07:31.955Z,98587.92
2019-03-26T10:08:35.141Z,98594.36
2019-03-26T10:09:37.226Z,98594.55
2019-03-26T10:10:39.367Z,98589.90
2019-03-26T10:11:41.484Z,98594.02
2019-03-26T10:12:43.534Z,98580.50
2019-03-26T10:13:45.654Z,98595.23
2019-03-26T10:14:47.956Z,98588.66
2019-03-26T10:15:49.593Z,98582.91
2019-03-26T10:16:51.613Z,98589.20
2019-03-26T10:17:53.739Z,98581.41
2019-03-26T10:18:55.717Z,98580.41
2019-03-26T10:19:57.906Z,98570.48
2019-03-26T10:21:00.065Z,98578.74
2019-03-26T10:22:01.890Z,98579.75
2019-03-26T10:23:04.310Z,98575.12
2019-03-26T10:24:06.039Z,98571.14
2019-03-26T10:25:10.937Z,98574.08
2019-03-26T10:26:12.527Z,98568.13
2019-03-26T10:27:14.512Z,98563.84
2019-03-26T10:28:16.589Z,98568.81
2019-03-26T10:29:29.612Z,98569.16
2019-03-26T10:30:40.065Z,98575.77
2019-03-26T10:31:43.668Z,98569.83
2019-03-26T10:32:45.813Z,98569.16
2019-03-26T10:33:47.879Z,98576.59
2019-03-26T10:34:50.950Z,98574.63
2019-03-26T10:35:53.306Z,98571.61
2019-03-26T10:36:56.058Z,98562.69
2019-03-26T10:37:58.154Z,98554.69
2019-03-26T10:39:05.875Z,98555.30
2019-03-26T10:40:08.920Z,98561.55
2019-03-26T10:41:11.311Z,98564.94
2019-03-26T10:42:13.442Z,98564.22
2019-03-26T10:43:15.209Z,98568.99
2019-03-26T10:44:17.479Z,98562.41
2019-03-26T10:45:19.884Z,98570.02
2019-03-26T10:46:22.057Z,98576.81
2019-03-26T10:47:25.110Z,98562.66
2019-03-26T10:48:31.644Z,98559.20
2019-03-26T10:49:32.372Z,98563.84
2019-03-26T10:50:34.574Z,98562.85
2019-03-26T10:51:37.986Z,98564.28
2019-03-26T10:52:39.997Z,98564.27
2019-03-26T10:53:42.086Z,98561.31
2019-03-26T10:54:43.747Z,98558.05
2019-03-26T10:55:45.737Z,98555.39
2019-03-26T10:56:47.916Z,98553.54
2019-03-26T10:57:50.071Z,98568.20
2019-03-26T10:58:52.182Z,98554.61
2019-03-26T10:59:54.314Z,98555.71
2019-03-26T11:00:56.032Z,98571.06
2019-03-26T11:01:59.945Z,98562.64
2019-03-26T11:03:02.777Z,98552.06
2019-03-26T11:04:07.559Z,98556.38
2019-03-26T11:05:09.064Z,98563.98
2019-03-26T11:06:11.353Z,98562.29
2019-03-26T11:07:13.017Z,98562.69
2019-03-26T11:08:15.196Z,98558.05
2019-03-26T11:09:24.108Z,98552.14
2019-03-26T11:10:21.941Z,98557.10
2019-03-26T11:11:25.301Z,98552.31
2019-03-26T11:12:27.419Z,98551.33
2019-03-26T11:13:29.819Z,98541.23
2019-03-26T11:14:32.052Z,98543.88
2019-03-26T11:15:33.945Z,98544.52
2019-03-26T11:16:36.256Z,98536.60
2019-03-26T11:17:38.716Z,98529.97
2019-03-26T11:18:40.629Z,98539.08
2019-03-26T11:19:42.844Z,98538.58
2019-03-26T11:20:45.642Z,98529.96
2019-03-26T11:21:47.608Z,98536.56
2019-03-26T11:22:50.290Z,98536.95
2019-03-26T11:23:52.456Z,98542.25
2019-03-26T11:24:54.376Z,98527.03
2019-03-26T11:25:56.918Z,98529.30
2019-03-26T11:26:59.245Z,98529.13
2019-03-26T11:28:01.553Z,98533.94
2019-03-26T11:29:04.859Z,98536.39
2019-03-26T11:30:08.940Z,98530.62
2019-03-26T11:31:11.430Z,98524.67
2019-03-26T11:32:13.537Z,98532.59
2019-03-26T11:33:15.822Z,98523.00
2019-03-26T11:34:17.523Z,98522.83
2019-03-26T11:35:19.735Z,98530.21
2019-03-26T11:36:21.791Z,98537.45
2019-03-26T11:37:23.814Z,98535.16
2019-03-26T11:38:26.085Z,98525.54
2019-03-26T11:39:32.892Z,98531.24
2019-03-26T11:40:32.021Z,98539.88
2019-03-26T11:41:34.269Z,98524.63
2019-03-26T11:42:36.561Z,98523.96
2019-03-26T11:43:38.627Z,98518.50
2019-03-26T11:44:40.737Z,98522.43
2019-03-26T11:45:42.946Z,98528.88
2019-03-26T11:46:45.132Z,98523.60
2019-03-26T11:47:48.360Z,98512.89
2019-03-26T11:48:50.535Z,98512.20
2019-03-26T11:49:53.820Z,98520.60
2019-03-26T11:50:55.927Z,98518.91
2019-03-26T11:51:57.779Z,98510.05
2019-03-26T11:53:00.069Z,98525.89
2019-03-26T11:54:02.241Z,98519.23
2019-03-26T11:55:07.502Z,98514.28
2019-03-26T11:56:09.628Z,98511.98
2019-03-26T11:57:11.756Z,98507.71
2019-03-26T11:58:13.951Z,98507.23
2019-03-26T11:59:16.270Z,98496.48
2019-03-26T12:00:21.223Z,98498.94
2019-03-26T12:01:23.320Z,98500.34
2019-03-26T12:02:25.290Z,98501.37
2019-03-26T12:03:27.348Z,98496.78
2019-03-26T12:04:29.229Z,98494.17
2019-03-26T12:05:31.408Z,98488.50
2019-03-26T12:06:33.391Z,98491.82
2019-03-26T12:07:36.355Z,98488.52
2019-03-26T12:08:38.298Z,98482.22
2019-03-26T12:09:46.180Z,98483.39
2019-03-26T12:10:44.054Z,98483.53
2019-03-26T12:11:46.206Z,98481.72
2019-03-26T12:12:48.070Z,98484.23
2019-03-26T12:13:50.254Z,98480.39